La Puente, New Mexico
Current Conditions -  °F | °C
As of 1:15 PM on Friday 19 Dec 2014 (Local Time) from KPSO Reporting Station
Clear Clear  
Wind Chill: 25°   Ceiling: Unl
Heat Index: 32°   Visibility: 10mi
Dew Point: 17°   Wind: 7mph
Humidity: 55%   Direction: 190°S
Pressure: 30.16"   Gusts: NA
Location:  36.679°N, 106.555°W
Report Text: KPSO 192015Z AUTO 19006KT 10SM CLR 00/M08 A3016 RMK AO2 T10011083
Loading
Personal Weather Stations






























Interactive Weather Map New forecast layout! Learn more

10-Day Weather Forecast

Advertisements
Track Severe Weather on mobile